This is the latest recevied weather packets stored in our database for station/object WW5JC. If no packets are shown the sender has not sent any weather packets the latest 10 day(s).
| Time | Temp. | Humidity | Pressure | Rain* | Wind** | Luminosity | Snow |
|---|---|---|---|---|---|---|---|
| 1777659668 | 17.22° C | 66% | 1018.9 hPa | 0 mm | - | 352 W/m² | - |
| 1777659366 | 16.67° C | 68% | 1018.9 hPa | 0 mm | - | 315 W/m² | - |
| 1777659062 | 16.67° C | 63% | 1019.5 hPa | 0 mm | - | 302 W/m² | - |
| 1777658760 | 17.22° C | 62% | 1019.4 hPa | 0 mm | - | 288 W/m² | - |
| 1777658456 | 17.22° C | 66% | 1019.4 hPa | 0 mm | - | 315 W/m² | - |
| 1777658153 | 17.22° C | 67% | 1019.2 hPa | 0 mm | - | 295 W/m² | - |
| 1777657850 | 16.67° C | 66% | 1019.5 hPa | 0 mm | - | 326 W/m² | - |
| 1777657547 | 16.67° C | 67% | 1019.1 hPa | 0 mm | - | 343 W/m² | - |
| 1777657244 | 16.67° C | 67% | 1019.2 hPa | 0 mm | - | 297 W/m² | - |
| 1777656941 | 16.67° C | 68% | 1019.6 hPa | 0 mm | - | 315 W/m² | - |
| 1777656638 | 16.67° C | 66% | 1019.1 hPa | 0 mm | - | 323 W/m² | - |
| 1777656333 | 16.67° C | 71% | 1019.1 hPa | 0 mm | - | 409 W/m² | - |
| 1777656029 | 16.67° C | 72% | 1019.4 hPa | 0 mm | - | 377 W/m² | - |
| 1777655726 | 16.11° C | 74% | 1019.3 hPa | 0 mm | - | 437 W/m² | - |
| 1777655422 | 16.11° C | 72% | 1019.4 hPa | 0 mm | - | 304 W/m² | - |
| 1777655119 | 16.11° C | 77% | 1019.6 hPa | 0 mm | - | 224 W/m² | - |
| 1777654816 | 16.11° C | 72% | 1019.9 hPa | 0 mm | - | 197 W/m² | - |
| 1777654515 | 16.11° C | 71% | 1019.8 hPa | 0 mm | - | 263 W/m² | - |
| 1777654212 | 16.11° C | 73% | 1020.1 hPa | 0 mm | - | 236 W/m² | - |
| 1777653909 | 16.11° C | 78% | 1020.2 hPa | 0 mm | - | 275 W/m² | - |
| 1777653606 | 15.56° C | 79% | 1019.6 hPa | 0 mm | - | 469 W/m² | - |
| 1777653302 | 15.56° C | 76% | 1020 hPa | 0 mm | - | 257 W/m² | - |
| 1777652998 | 15.56° C | 79% | 1020.1 hPa | 0 mm | - | 228 W/m² | - |
| 1777652695 | 15.56° C | 80% | 1020.1 hPa | 0 mm | - | 216 W/m² | - |
| 1777652392 | 15.56° C | 79% | 1020.4 hPa | 0 mm | - | 191 W/m² | - |
* Rain latest hour (hover to see other rain measurements)
** Current wind speed in m/s (hover to see current wind gust speed)